SUSQUEDA - St. MARTÍ SACALM (La Selva)





Hora UTC 21:55
Temperatura 21.7 ºC
Humedad 81.6 %
Presión 1018.9 hPa
Pluja 0.0 mm
Velocidad viento 6.0 km/h
Dirección viento NE
Radiación solar 0.1 W/m²

Datos diarios 2024-07-24



Hora UTC (invierno +1h; verano +2h)
Temperatura (ºC) Humedad (%) Presión (hPa) Velocidad viento (km/h) Precipitación (mm) Radiación solar (W/m²)
Hora UTC Aire Humedad Presión Vel. Dir. Vel. Max Dir. Intent. máx 5 min. Rad. Sol.
00:05 21.5 67.1 1022.2 11.9 SW 11.9 SW 0.0 0.1
00:10 21.4 67.5 1022.2 10.8 SW 12.4 SW 0.0 0.1
00:15 21.4 67.6 1022.1 9.9 SSW 12.7 SW 0.0 0.1
00:20 21.3 67.9 1022.0 10.7 SW 13.8 SW 0.0 0.1
00:25 21.2 68.1 1021.9 12.5 SW 15.2 SW 0.0 0.1
00:30 21.0 69.0 1021.9 11.7 SW 15.5 SW 0.0 0.1
00:35 21.1 68.6 1021.8 13.1 SW 15.9 SW 0.0 0.1
00:40 20.8 69.8 1021.8 12.7 SW 15.5 SW 0.0 0.1
00:45 20.9 69.0 1021.8 11.5 SW 15.2 SW 0.0 0.1
00:50 21.1 68.7 1021.9 11.3 SW 14.8 SW 0.0 0.1
00:55 21.3 68.1 1021.9 10.1 SSW 13.4 SSW 0.0 0.1
01:00 21.4 68.0 1021.9 9.7 SSW 12.0 SSW 0.0 0.1
01:05 21.4 68.4 1021.8 12.3 SW 16.2 SSW 0.0 0.1
01:10 21.5 68.6 1021.8 12.6 SW 16.6 SW 0.0 0.1
01:15 21.1 70.2 1021.7 12.3 SW 15.9 SW 0.0 0.1
01:20 21.0 70.6 1021.8 12.0 SW 15.2 SW 0.0 0.1
01:25 21.4 69.4 1021.8 11.3 SW 14.1 WSW 0.0 0.1
01:30 21.6 68.8 1021.8 11.9 SW 17.3 WSW 0.0 0.1
01:35 21.6 68.8 1021.7 12.7 SW 19.4 SW 0.0 0.1
01:40 21.8 68.3 1021.6 12.9 SW 16.2 SW 0.0 0.1
01:45 21.4 70.1 1021.6 13.0 SW 18.4 WSW 0.0 0.1
01:50 21.3 70.5 1021.5 13.4 SW 17.7 SW 0.0 0.1
01:55 21.2 71.0 1021.5 14.9 SW 18.4 SW 0.0 0.1
02:00 21.0 71.5 1021.5 13.7 SW 18.0 SSW 0.0 0.1
02:05 20.7 72.5 1021.4 12.2 SW 15.2 SW 0.0 0.1
02:10 20.7 72.5 1021.4 11.8 SW 13.8 SW 0.0 0.1
02:15 20.6 73.3 1021.4 10.4 SSW 13.8 SSW 0.0 0.1
02:20 20.5 74.5 1021.4 10.7 SW 13.8 SW 0.0 0.1
02:25 20.5 74.6 1021.3 11.0 SW 13.8 SW 0.0 0.1
02:30 20.4 75.5 1021.3 11.4 SW 14.8 SW 0.0 0.1
02:35 20.4 76.1 1021.3 11.3 SW 14.8 SW 0.0 0.1
02:40 20.3 76.7 1021.3 10.6 SW 13.8 SW 0.0 0.1
02:45 20.2 77.1 1021.3 11.5 SW 16.6 SW 0.0 0.1
02:50 20.3 76.6 1021.3 11.8 SW 15.5 SW 0.0 0.1
02:55 20.3 76.6 1021.2 10.9 SW 15.2 SW 0.0 0.1
03:00 20.1 77.2 1021.2 10.6 SW 14.5 WSW 0.0 0.1
03:05 20.1 77.6 1021.2 12.1 SW 18.0 SW 0.0 0.1
03:10 20.2 77.0 1021.2 11.3 SW 15.5 SSW 0.0 0.1
03:15 20.2 77.1 1021.2 9.6 SSW 12.4 SSW 0.0 0.1
03:20 20.2 77.2 1021.2 7.8 SSW 9.9 SW 0.0 0.1
03:25 20.2 77.0 1021.2 7.9 SSW 10.6 SSW 0.0 0.1
03:30 20.4 76.5 1021.2 7.6 SSW 10.6 SSW 0.0 0.1
03:35 20.5 75.7 1021.2 7.7 SSW 10.3 SSW 0.0 0.1
03:40 20.5 76.0 1021.2 8.4 SSW 11.0 SSW 0.0 0.1
03:45 20.5 76.2 1021.2 7.3 SSW 10.3 SSW 0.0 0.1
03:50 20.4 76.5 1021.2 7.4 SSW 9.9 SSW 0.0 0.1
03:55 20.6 76.0 1021.2 8.2 SSW 9.5 SSW 0.0 0.1
04:00 20.7 75.4 1021.2 6.8 SSW 8.8 SSW 0.0 0.1
04:05 20.8 75.3 1021.2 6.0 SSW 8.1 SSW 0.0 0.1
04:10 20.9 75.1 1021.2 6.4 SSW 8.5 SSW 0.0 0.1
04:15 20.9 75.0 1021.2 5.5 S 6.7 S 0.0 0.2
04:20 20.9 75.0 1021.3 6.5 SSW 8.8 SSW 0.0 0.3
04:25 20.7 75.8 1021.3 6.8 SSW 9.5 SSW 0.0 0.7
04:30 20.7 75.7 1021.3 6.8 SSW 9.2 SSW 0.0 1.5
04:35 20.7 75.9 1021.3 7.1 SSW 8.5 SSW 0.0 2.7
04:40 20.6 76.0 1021.3 6.4 SSW 8.5 SSW 0.0 4.8
04:45 20.6 75.9 1021.3 6.6 S 8.8 S 0.0 7.5
04:50 20.6 76.0 1021.2 6.6 SSW 8.5 SSW 0.0 10.6
04:55 20.7 75.8 1021.2 5.7 SSW 7.8 S 0.0 19.4
05:00 20.7 75.7 1021.3 4.5 SSW 7.1 SSW 0.0 30.7
05:05 20.9 74.3 1021.3 3.6 SW 6.4 NW 0.0 41.5
05:10 21.1 73.2 1021.2 4.6 SW 8.1 SSW 0.0 53.1
05:15 21.5 70.8 1021.2 4.3 WSW 6.7 W 0.0 64.8
05:20 21.5 71.6 1021.2 5.1 SSW 8.1 SW 0.0 77.3
05:25 21.2 73.3 1021.2 5.9 SSW 8.1 SSW 0.0 89.7
05:30 21.2 73.3 1021.2 7.2 SSW 9.5 SSW 0.0 103.2
05:35 21.2 73.4 1021.2 7.3 SSW 9.5 SSW 0.0 116.8
05:40 21.1 73.5 1021.2 5.9 SSW 7.1 SSW 0.0 131.4
05:45 21.2 73.3 1021.2 6.0 SSW 7.8 SSW 0.0 144.3
05:50 21.2 73.1 1021.2 6.8 SSW 8.1 SSW 0.0 153.4
05:55 21.2 73.4 1021.2 7.5 SSW 9.5 SSW 0.0 167.3
06:00 21.1 74.5 1021.2 8.3 SW 10.3 SW 0.0 182.0
06:05 21.1 74.7 1021.3 8.4 SW 10.3 SW 0.0 197.5
06:10 21.1 75.0 1021.3 8.6 SW 9.5 SW 0.0 212.8
06:15 21.1 74.9 1021.3 9.4 SW 12.0 SW 0.0 226.8
06:20 21.2 75.1 1021.3 8.7 SSW 11.7 SSW 0.0 241.8
06:25 21.2 75.5 1021.3 8.8 SW 11.3 SSW 0.0 258.9
06:30 21.2 75.5 1021.3 9.3 SW 12.7 SW 0.0 277.2
06:35 21.3 74.6 1021.3 9.5 SW 11.7 SW 0.0 293.5
06:40 21.3 73.5 1021.3 9.6 SW 11.3 SW 0.0 310.5
06:45 21.4 73.2 1021.3 8.9 SW 11.3 SW 0.0 326.7
06:50 21.5 72.8 1021.3 8.3 SW 10.3 SW 0.0 342.8
06:55 21.6 72.5 1021.2 8.1 SSW 10.6 SSW 0.0 357.0
07:00 21.8 71.5 1021.2 8.3 SSW 11.7 SW 0.0 373.4
07:05 21.9 70.5 1021.3 9.1 SW 12.0 SW 0.0 390.7
07:10 21.9 70.6 1021.3 8.8 SW 11.0 SW 0.0 407.2
07:15 22.0 70.7 1021.4 7.8 SW 11.0 SW 0.0 422.6
07:20 22.3 69.5 1021.4 7.6 SSW 11.0 SSW 0.0 438.2
07:25 22.6 66.5 1021.4 8.6 SSW 11.7 SW 0.0 454.5
07:30 22.9 65.7 1021.4 8.2 SSW 11.7 SSW 0.0 469.7
07:35 23.1 63.5 1021.4 10.1 SW 13.8 SSW 0.0 485.0
07:40 23.1 62.3 1021.4 10.9 SW 14.8 SW 0.0 500.9
07:45 23.1 62.1 1021.4 12.3 SW 15.9 SW 0.0 514.8
07:50 23.2 61.3 1021.4 11.3 SW 15.9 SW 0.0 528.6
07:55 23.3 61.2 1021.3 11.5 SW 16.6 SW 0.0 543.1
08:00 23.6 60.8 1021.4 10.5 SW 15.2 SW 0.0 559.4
08:05 23.7 59.5 1021.4 12.1 SW 17.3 SSW 0.0 574.8
08:10 23.8 59.2 1021.3 12.8 SW 20.8 SSW 0.0 588.0
08:15 24.0 59.2 1021.3 11.8 SW 17.7 SW 0.0 602.6
08:20 24.1 57.7 1021.2 15.2 SW 20.8 SW 0.0 616.3
08:25 24.0 57.9 1021.2 17.0 SW 25.1 SW 0.0 628.7
08:30 24.0 58.1 1021.1 18.7 SW 28.2 SSW 0.0 641.4
08:35 24.1 57.2 1021.0 20.8 SW 30.0 SSW 0.0 655.3
08:40 24.2 57.8 1021.0 18.8 SW 25.1 SW 0.0 668.8
08:45 24.4 57.3 1021.1 15.8 SSW 21.2 SSW 0.0 682.3
08:50 24.7 56.7 1021.1 14.5 SSW 24.0 SSW 0.0 694.5
08:55 24.6 55.8 1021.0 15.7 SSW 21.9 SSW 0.0 707.9
09:00 24.7 55.3 1021.1 16.0 SSW 21.9 SW 0.0 719.2
09:05 24.8 53.9 1021.1 17.0 SSW 23.0 SW 0.0 730.6
09:10 24.9 54.4 1021.0 16.5 SW 24.4 SW 0.0 742.2
09:15 25.2 53.7 1021.0 14.3 SSW 24.7 SSW 0.0 753.7
09:20 25.3 53.4 1021.0 14.7 SSW 22.6 SSW 0.0 765.8
09:25 25.5 53.8 1021.0 14.3 SW 20.8 SW 0.0 775.1
09:30 25.5 53.0 1021.0 14.9 SW 22.2 SW 0.0 783.1
09:35 25.7 52.0 1021.0 15.1 SW 21.9 SW 0.0 794.4
09:40 25.8 51.0 1021.0 14.5 SSW 21.5 SW 0.0 805.0
09:45 26.0 50.9 1021.0 11.8 SW 21.2 SSW 0.0 815.0
09:50 26.2 51.3 1021.0 9.5 SW 17.3 SW 0.0 824.0
09:55 26.7 50.7 1021.1 5.5 SW 17.7 SW 0.0 831.0
10:00 26.8 51.0 1021.0 5.8 SW 19.8 SSW 0.0 840.0
10:05 26.9 48.9 1020.9 10.3 SW 18.0 SW 0.0 704.3
10:10 26.9 47.8 1020.9 12.3 SW 22.2 SW 0.0 858.0
10:15 27.0 48.8 1020.9 9.9 SW 18.7 SW 0.0 865.0
10:20 27.1 47.1 1020.8 12.6 SW 20.8 SW 0.0 872.0
10:25 27.3 47.9 1020.8 10.3 WSW 20.5 SSW 0.0 878.0
10:30 27.5 50.5 1020.8 5.7 W 14.8 SW 0.0 884.0
10:35 26.8 54.0 1020.8 6.9 WNW 16.6 WNW 0.0 891.0
10:40 26.7 59.5 1020.6 10.8 NNW 25.4 ENE 0.0 896.0
10:45 26.9 58.4 1020.6 16.3 ENE 26.5 E 0.0 898.0
10:50 27.2 58.3 1020.7 11.7 ENE 18.7 E 0.0 905.0
10:55 27.5 59.0 1020.7 11.0 ENE 20.1 ENE 0.0 905.0
11:00 27.3 58.6 1020.6 11.2 ENE 19.8 NE 0.0 910.0
11:05 27.0 59.4 1020.6 10.1 NE 18.7 N 0.0 915.0
11:10 26.6 61.5 1020.6 9.4 NNE 21.2 NNE 0.0 917.0
11:15 27.0 60.3 1020.6 6.1 NNE 20.1 NE 0.0 917.0
11:20 27.2 59.5 1020.6 7.8 NE 22.6 NE 0.0 921.0
11:25 27.5 59.1 1020.6 11.5 ENE 24.7 ENE 0.0 923.0
11:30 28.1 58.3 1020.6 6.8 ENE 15.9 ENE 0.0 923.0
11:35 28.4 56.7 1020.6 6.7 ENE 14.8 ENE 0.0 924.0
11:40 28.6 57.2 1020.5 5.9 E 13.4 E 0.0 922.0
11:45 28.5 56.8 1020.5 10.7 ENE 21.5 E 0.0 924.0
11:50 28.3 56.8 1020.4 16.6 ENE 26.5 ESE 0.0 925.0
11:55 28.1 57.9 1020.4 13.8 ENE 22.2 ENE 0.0 924.0
12:00 28.3 57.2 1020.3 16.3 ENE 26.5 ENE 0.0 921.0
12:05 28.0 58.9 1020.2 11.1 ENE 22.2 NE 0.0 922.0
12:10 28.2 58.8 1020.2 8.4 E 21.2 ESE 0.0 921.0
12:15 28.5 57.8 1020.3 8.9 ENE 18.4 NE 0.0 923.0
12:20 28.3 57.6 1020.2 9.9 NE 19.4 NNE 0.0 920.0
12:25 28.4 58.2 1020.2 13.9 E 24.4 ENE 0.0 908.0
12:30 29.0 54.8 1020.2 11.1 E 18.0 ENE 0.0 902.0
12:35 28.8 56.4 1020.2 13.0 NE 23.0 ENE 0.0 901.0
12:40 28.2 58.7 1020.2 7.7 ENE 19.1 NE 0.0 903.0
12:45 28.2 59.0 1020.1 8.6 NE 19.4 NE 0.0 909.0
12:50 28.6 59.5 1020.0 8.9 NE 22.2 NE 0.0 920.0
12:55 28.3 57.2 1020.1 12.4 NE 20.5 ENE 0.0 871.0
13:00 28.0 58.9 1020.0 11.3 NE 19.4 ENE 0.0 871.0
13:05 28.3 57.6 1020.0 11.8 ENE 18.4 NE 0.0 874.0
13:10 28.5 56.9 1019.9 8.8 NE 18.4 NNE 0.0 876.0
13:15 28.3 58.0 1019.9 7.9 NNE 17.3 NNE 0.0 865.0
13:20 28.6 57.0 1019.9 10.9 ENE 17.7 E 0.0 872.0
13:25 28.9 57.8 1019.8 7.7 NE 17.3 ENE 0.0 856.0
13:30 28.7 56.2 1019.8 9.6 NE 20.8 ENE 0.0 849.0
13:35 28.3 58.6 1019.8 6.5 NE 12.0 ENE 0.0 849.0
13:40 28.5 57.5 1019.7 8.2 ENE 15.5 ESE 0.0 823.0
13:45 28.7 57.5 1019.7 8.7 NE 19.8 ENE 0.0 822.0
13:50 28.4 57.6 1019.6 12.3 NE 27.2 NE 0.0 817.0
13:55 28.0 59.6 1019.7 7.5 NE 17.7 N 0.0 475.8
14:00 27.8 60.0 1019.6 8.8 E 19.8 E 0.0 361.3
14:05 27.5 59.3 1019.6 15.2 ENE 22.6 NE 0.0 205.0
14:10 27.0 60.2 1019.6 14.2 ENE 20.8 ENE 0.0 336.9
14:15 27.1 60.3 1019.6 7.7 ESE 17.0 E 0.0 515.1
14:20 27.7 60.5 1019.5 6.8 NE 20.1 SE 0.0 750.7
14:25 27.8 59.5 1019.5 9.2 NE 21.9 E 0.0 427.9
14:30 27.7 59.3 1019.4 4.9 ENE 12.7 ENE 0.0 606.6
14:35 28.2 57.6 1019.4 9.2 ENE 21.9 ENE 0.0 719.9
14:40 28.4 56.8 1019.3 9.0 E 22.2 NE 0.0 701.7
14:45 28.5 55.3 1019.3 10.0 E 19.8 ENE 0.0 698.0
14:50 28.5 54.1 1019.3 8.5 E 21.5 ENE 0.0 652.4
14:55 28.4 54.0 1019.3 9.1 ENE 23.3 E 0.0 674.4
15:00 28.3 55.3 1019.3 7.6 NE 18.0 NE 0.0 653.8
15:05 28.5 55.6 1019.3 6.0 ENE 13.4 NE 0.0 513.3
15:10 28.4 56.0 1019.3 8.3 ENE 16.6 E 0.0 556.7
15:15 27.9 56.8 1019.2 13.0 NE 21.9 ENE 0.0 616.9
15:20 27.6 57.9 1019.3 11.3 ENE 17.7 ENE 0.0 316.4
15:25 27.4 57.5 1019.2 11.8 ENE 18.0 ENE 0.0 201.7
15:30 26.9 59.2 1019.2 10.3 ENE 17.3 ENE 0.0 213.2
15:35 26.5 61.8 1019.1 7.5 NE 11.7 NE 0.0 474.5
15:40 27.3 61.1 1019.1 7.9 ENE 12.7 ENE 0.0 432.5
15:45 27.6 60.0 1019.1 6.6 ENE 12.4 NE 0.0 313.8
15:50 27.6 61.0 1019.1 7.5 NE 11.3 NE 0.0 527.3
15:55 27.5 61.1 1019.0 5.7 NE 9.9 NNE 0.0 255.6
16:00 26.7 63.4 1019.0 8.8 NNE 13.1 NNE 0.0 510.6
16:05 26.6 64.5 1018.9 6.9 NE 13.4 NNE 0.0 370.4
16:10 26.8 64.4 1018.9 7.0 NE 14.5 ENE 0.0 345.3
16:15 27.0 63.7 1018.9 8.3 ENE 14.1 NE 0.0 276.7
16:20 26.6 64.3 1018.9 9.0 NE 15.2 ENE 0.0 186.8
16:25 26.3 66.3 1018.8 9.1 ENE 15.2 ENE 0.0 165.8
16:30 26.1 65.7 1018.8 10.8 ENE 16.2 E 0.0 168.1
16:35 26.0 65.5 1018.8 9.2 E 14.5 ENE 0.0 195.3
16:40 26.3 64.5 1018.7 10.1 ENE 15.2 ENE 0.0 380.8
16:45 27.0 62.3 1018.7 10.3 ENE 15.9 E 0.0 381.5
16:50 27.3 62.3 1018.8 8.7 ENE 14.1 E 0.0 288.8
16:55 27.5 61.2 1018.7 6.7 ENE 12.0 NE 0.0 357.7
17:00 27.8 60.0 1018.7 10.1 ENE 14.8 E 0.0 349.4
17:05 27.9 59.7 1018.7 12.2 E 18.4 NE 0.0 345.7
17:10 27.6 58.8 1018.7 13.3 ENE 21.2 E 0.0 293.8
17:15 26.9 60.2 1018.7 10.3 NE 21.2 NNE 0.0 270.2
17:20 26.5 61.1 1018.7 10.7 ENE 17.0 ENE 0.0 260.2
17:25 26.4 61.1 1018.7 10.5 NE 20.1 NE 0.0 245.5
17:30 26.5 62.3 1018.7 8.3 ENE 13.4 E 0.0 229.6
17:35 26.6 61.8 1018.7 11.0 ENE 18.4 ENE 0.0 212.3
17:40 26.6 62.6 1018.7 9.2 ENE 13.4 ENE 0.0 198.3
17:45 26.6 62.9 1018.7 12.0 ENE 16.2 E 0.0 182.4
17:50 26.6 64.0 1018.7 9.5 ENE 14.5 ENE 0.0 164.8
17:55 26.4 64.0 1018.7 9.9 ENE 15.9 E 0.0 150.6
18:00 26.0 64.3 1018.7 8.4 ENE 13.4 ENE 0.0 140.7
18:05 26.0 65.4 1018.7 7.5 ENE 11.0 ENE 0.0 124.3
18:10 25.9 65.9 1018.7 5.4 NE 9.2 NE 0.0 107.7
18:15 25.9 65.2 1018.7 3.0 NE 10.3 ENE 0.0 99.4
18:20 25.6 66.4 1018.7 4.2 NE 8.5 NNE 0.0 84.5
18:25 25.4 67.4 1018.7 5.2 NE 9.2 NE 0.0 78.8
18:30 25.1 66.8 1018.8 5.1 NE 9.9 ENE 0.0 70.4
18:35 24.9 68.1 1018.8 4.2 NE 8.1 ENE 0.0 59.4
18:40 24.6 68.8 1018.8 6.6 NE 10.3 ENE 0.0 51.0
18:45 24.5 69.3 1018.8 7.8 NE 12.0 ENE 0.0 41.7
18:50 24.2 70.6 1018.8 5.2 NE 8.8 NNE 0.0 33.0
18:55 23.9 72.2 1018.8 7.7 NE 12.0 NE 0.0 22.2
19:00 23.6 73.9 1018.9 6.8 NE 11.0 NE 0.0 17.0
19:05 23.3 75.3 1018.9 6.8 NE 11.7 NE 0.0 12.5
19:10 23.1 76.4 1018.9 6.7 NE 9.2 ENE 0.0 9.0
19:15 23.1 77.0 1018.9 5.6 ENE 8.5 NE 0.0 6.0
19:20 23.0 77.6 1018.9 5.3 NE 8.8 NE 0.0 3.9
19:25 22.8 77.8 1018.9 5.8 NE 9.5 NE 0.0 2.6
19:30 22.7 78.0 1018.9 4.2 NE 7.1 ENE 0.0 1.5
19:35 22.6 77.4 1018.9 5.1 ENE 7.1 NE 0.0 0.8
19:40 22.6 76.8 1018.9 5.0 ENE 8.5 E 0.0 0.4
19:45 22.5 76.3 1019.0 4.3 NE 7.4 ENE 0.0 0.2
19:50 22.6 75.6 1019.0 4.9 ENE 8.8 ENE 0.0 0.1
19:55 22.6 76.0 1019.0 4.6 NE 7.8 ENE 0.0 0.1
20:00 22.5 76.8 1019.0 4.8 NE 7.1 ENE 0.0 0.1
20:05 22.5 77.6 1019.0 3.9 NE 6.0 NNE 0.0 0.1
20:10 22.4 78.0 1019.0 5.3 NE 7.4 NE 0.0 0.1
20:15 22.4 78.4 1019.0 3.9 NE 7.4 NE 0.0 0.1
20:20 22.3 79.4 1019.1 3.5 NNE 5.7 NE 0.0 0.1
20:25 22.2 80.2 1019.1 4.1 NE 6.0 NE 0.0 0.1
20:30 22.1 80.9 1019.1 3.8 NE 6.0 NE 0.0 0.1
20:35 22.0 81.2 1019.1 4.9 NE 8.1 NE 0.0 0.1
20:40 22.0 81.9 1019.1 4.8 NE 7.4 ENE 0.0 0.1
20:45 21.9 82.3 1019.1 4.7 NE 6.7 NE 0.0 0.1
20:50 21.8 82.7 1019.1 4.9 NE 7.4 NE 0.0 0.1
20:55 21.8 82.8 1019.1 4.2 ENE 7.8 ENE 0.0 0.1
21:00 21.7 82.6 1019.1 4.2 ENE 6.0 ENE 0.0 0.1
21:05 21.7 82.2 1019.0 3.6 NE 6.0 ENE 0.0 0.1
21:10 21.8 81.7 1019.0 4.3 NE 6.4 NE 0.0 0.1
21:15 21.9 81.5 1019.0 3.8 NE 5.7 ENE 0.0 0.1
21:20 21.9 81.2 1019.0 3.7 NE 6.4 NE 0.0 0.1
21:25 21.9 81.2 1019.0 4.1 NE 5.7 N 0.0 0.1
21:30 21.8 81.2 1019.0 4.4 NE 7.4 NNE 0.0 0.1
21:35 21.8 81.2 1019.0 5.0 NNE 7.8 N 0.0 0.1
21:40 21.8 80.8 1019.0 4.0 NE 6.0 NE 0.0 0.1
21:45 21.8 81.0 1019.0 5.3 ENE 7.4 NE 0.0 0.1
21:50 21.8 81.2 1019.0 5.1 NE 7.8 ENE 0.0 0.1
21:55 21.7 81.6 1018.9 6.0 NE 9.2 NE 0.0 0.1
Máxima 29.0 82.8 1022.2 20.8 SW 30.0 SSW 0.0 925.0
Mínima 20 47.1 1018.7
Total 0.0